Time;durP1;ratioP1;P1;durP2;ratioP2;P2;SDS_P1;SDS_P2;PMS_P1;PMS_P2;Temp;Humidity;BMP_temperature;BMP_pressure;BME280_temperature;BME280_humidity;BME280_pressure;Samples;Min_cycle;Max_cycle;Signal;HPM_P1;HPM_P2
2023/07/03 00:04:11;;;;;;;8.48;5.35;;;;;;;;;;10406929;28;20029;-58
2023/07/03 00:09:12;;;;;;;10.15;6.25;;;;;;;;;;10385375;28;20030;-58
2023/07/03 00:14:12;;;;;;;6.15;5.55;;;;;;;;;;10395437;28;20018;-58
2023/07/03 00:19:13;;;;;;;6.43;5.53;;;;;;;;;;10389023;28;20018;-59
2023/07/03 00:24:14;;;;;;;7.88;5.63;;;;;;;;;;10375124;28;20026;-58
2023/07/03 00:29:14;;;;;;;7.97;5.30;;;;;;;;;;10369786;28;20025;-58
2023/07/03 00:34:15;;;;;;;9.50;4.57;;;;;;;;;;10385234;28;20029;-59
2023/07/03 00:39:16;;;;;;;6.50;4.60;;;;;;;;;;10394475;28;20432;-58
2023/07/03 00:44:19;;;;;;;5.55;4.85;;;;;;;;;;10390192;28;20050;-58
2023/07/03 00:49:20;;;;;;;5.60;5.00;;;;;;;;;;10377061;28;20038;-58
2023/07/03 00:54:21;;;;;;;6.95;6.13;;;;;;;;;;10380896;28;20018;-59
2023/07/03 00:59:22;;;;;;;10.35;6.15;;;;;;;;;;10387971;28;20450;-58
2023/07/03 01:04:34;;;;;;;9.00;6.13;;;;;;;;;;10381345;28;20025;-58
2023/07/03 01:10:01;;;;;;;7.38;5.80;;;;;;;;;;10385126;28;20030;-59
2023/07/03 01:15:07;;;;;;;7.35;5.72;;;;;;;;;;10406066;28;20044;-59
2023/07/03 01:20:13;;;;;;;7.28;5.88;;;;;;;;;;10395256;28;20026;-58
2023/07/03 01:25:18;;;;;;;7.38;6.43;;;;;;;;;;10380678;28;20045;-58
2023/07/03 01:30:20;;;;;;;8.98;6.40;;;;;;;;;;10390754;28;20065;-59
2023/07/03 01:35:24;;;;;;;7.88;6.47;;;;;;;;;;10388645;28;20033;-58
2023/07/03 01:40:25;;;;;;;6.97;6.25;;;;;;;;;;10399351;28;20074;-62
2023/07/03 01:45:26;;;;;;;7.20;6.30;;;;;;;;;;10386672;28;20490;-59
2023/07/03 01:50:29;;;;;;;9.98;6.05;;;;;;;;;;10378102;28;20091;-60
2023/07/03 01:55:51;;;;;;;7.85;7.05;;;;;;;;;;10401210;28;20046;-58
2023/07/03 02:00:59;;;;;;;7.38;6.60;;;;;;;;;;10380204;28;20044;-58
2023/07/03 02:06:09;;;;;;;8.02;6.50;;;;;;;;;;10396238;28;20095;-58
2023/07/03 02:11:20;;;;;;;7.57;6.80;;;;;;;;;;10391348;28;20037;-58
2023/07/03 02:16:20;;;;;;;10.05;7.70;;;;;;;;;;10378659;28;20030;-61
2023/07/03 02:21:21;;;;;;;7.88;7.03;;;;;;;;;;10393217;28;20040;-59
2023/07/03 02:26:22;;;;;;;9.27;7.45;;;;;;;;;;10402755;28;20041;-59
2023/07/03 02:31:22;;;;;;;10.52;8.48;;;;;;;;;;10388702;28;20083;-58
2023/07/03 02:36:25;;;;;;;9.13;7.32;;;;;;;;;;10388807;28;20041;-59
2023/07/03 02:41:25;;;;;;;13.82;7.95;;;;;;;;;;10385917;28;20428;-60
2023/07/03 02:46:26;;;;;;;10.52;8.20;;;;;;;;;;10400710;28;20026;-59
2023/07/03 02:51:26;;;;;;;10.18;9.00;;;;;;;;;;10403777;28;20036;-59
2023/07/03 02:56:28;;;;;;;10.63;9.23;;;;;;;;;;10397800;28;20441;-60
2023/07/03 03:01:29;;;;;;;10.15;8.88;;;;;;;;;;10380775;28;20436;-58
2023/07/03 03:06:31;;;;;;;12.63;9.07;;;;;;;;;;10398027;28;20045;-58
2023/07/03 03:11:32;;;;;;;14.13;10.38;;;;;;;;;;10399105;28;20040;-57
2023/07/03 03:16:33;;;;;;;11.75;10.40;;;;;;;;;;10384601;28;20037;-57
2023/07/03 03:21:34;;;;;;;13.57;11.15;;;;;;;;;;10409118;28;20026;-57
2023/07/03 03:26:35;;;;;;;12.20;10.90;;;;;;;;;;10396003;28;20496;-57
2023/07/03 03:31:36;;;;;;;11.48;9.80;;;;;;;;;;10385357;28;20053;-57
2023/07/03 03:36:38;;;;;;;11.48;9.50;;;;;;;;;;10371043;28;20041;-58
2023/07/03 03:41:39;;;;;;;12.18;7.45;;;;;;;;;;10403893;28;20033;-59
2023/07/03 03:46:39;;;;;;;10.15;6.43;;;;;;;;;;10396023;28;20056;-58
2023/07/03 03:51:40;;;;;;;9.15;6.03;;;;;;;;;;10395364;28;20033;-61
2023/07/03 03:56:41;;;;;;;6.88;5.07;;;;;;;;;;10380251;28;20030;-61
2023/07/03 04:01:42;;;;;;;6.78;5.18;;;;;;;;;;10404198;28;20018;-60
2023/07/03 04:06:43;;;;;;;6.95;4.90;;;;;;;;;;10403357;28;20028;-61
2023/07/03 04:11:44;;;;;;;7.95;4.70;;;;;;;;;;10399592;28;20033;-61
2023/07/03 04:16:45;;;;;;;5.88;3.78;;;;;;;;;;10388180;28;20112;-62
2023/07/03 04:21:45;;;;;;;10.18;4.80;;;;;;;;;;10387011;28;20032;-58
2023/07/03 04:26:46;;;;;;;5.07;4.35;;;;;;;;;;10394980;28;20036;-61
2023/07/03 04:31:47;;;;;;;5.30;4.38;;;;;;;;;;10406824;28;20025;-57
2023/07/03 04:36:48;;;;;;;4.00;3.60;;;;;;;;;;10396041;28;20083;-57
2023/07/03 04:41:48;;;;;;;6.00;4.47;;;;;;;;;;10382342;28;20064;-57
2023/07/03 04:46:49;;;;;;;7.47;4.25;;;;;;;;;;10385729;28;20029;-58
2023/07/03 04:51:52;;;;;;;4.57;3.78;;;;;;;;;;10395410;28;20155;-58
2023/07/03 04:56:52;;;;;;;5.18;4.10;;;;;;;;;;10393563;28;20022;-57
2023/07/03 05:01:53;;;;;;;4.38;3.65;;;;;;;;;;10383235;28;20042;-57
2023/07/03 05:06:54;;;;;;;15.63;3.95;;;;;;;;;;10386217;28;20455;-57
2023/07/03 05:11:54;;;;;;;4.38;3.90;;;;;;;;;;10394878;28;20038;-57
2023/07/03 05:16:55;;;;;;;5.43;4.00;;;;;;;;;;10379879;28;20034;-57
2023/07/03 05:21:55;;;;;;;4.50;3.78;;;;;;;;;;10380594;28;20021;-64
2023/07/03 05:26:56;;;;;;;4.30;3.80;;;;;;;;;;10392198;28;20040;-63
2023/07/03 05:31:56;;;;;;;4.18;3.53;;;;;;;;;;10380441;28;20033;-62
2023/07/03 05:36:58;;;;;;;3.92;3.50;;;;;;;;;;10390003;28;20033;-61
2023/07/03 05:41:59;;;;;;;4.60;3.38;;;;;;;;;;10385227;28;20128;-60
2023/07/03 05:46:59;;;;;;;6.53;3.60;;;;;;;;;;10391522;28;20033;-61
2023/07/03 05:52:00;;;;;;;6.97;5.05;;;;;;;;;;10376505;28;20037;-59
2023/07/03 05:57:07;;;;;;;7.80;4.60;;;;;;;;;;10381123;28;20029;-60
2023/07/03 06:02:12;;;;;;;;;;;;;;;;;;10385853;28;20577;-61
2023/07/03 06:07:13;;;;;;;8.18;4.75;;;;;;;;;;10380138;28;19923;-61
2023/07/03 06:12:13;;;;;;;15.52;5.68;;;;;;;;;;10372423;28;20053;-59
2023/07/03 06:17:14;;;;;;;10.35;5.38;;;;;;;;;;10387402;28;20389;-61
2023/07/03 06:22:14;;;;;;;13.20;5.05;;;;;;;;;;10391820;28;20037;-61
2023/07/03 06:27:15;;;;;;;17.65;5.13;;;;;;;;;;10388189;28;20018;-60
2023/07/03 06:32:18;;;;;;;15.45;4.90;;;;;;;;;;10400731;28;20026;-61
2023/07/03 06:37:18;;;;;;;9.88;4.90;;;;;;;;;;10398624;28;20037;-58
2023/07/03 06:42:19;;;;;;;12.05;4.93;;;;;;;;;;10390399;28;20045;-60
2023/07/03 06:47:20;;;;;;;11.57;5.28;;;;;;;;;;10386428;28;20092;-60
2023/07/03 06:52:20;;;;;;;11.05;5.00;;;;;;;;;;10387405;28;20029;-59
2023/07/03 06:57:21;;;;;;;8.88;5.15;;;;;;;;;;10388698;28;20030;-60
2023/07/03 07:02:21;;;;;;;10.98;4.85;;;;;;;;;;10375634;28;20528;-60
2023/07/03 07:07:22;;;;;;;9.20;4.30;;;;;;;;;;10382024;28;20385;-59
2023/07/03 07:12:23;;;;;;;7.03;4.40;;;;;;;;;;10376549;28;20099;-58
2023/07/03 07:17:23;;;;;;;9.93;4.85;;;;;;;;;;10397946;28;20382;-58
2023/07/03 07:22:24;;;;;;;8.60;4.40;;;;;;;;;;10384414;28;20030;-59
2023/07/03 07:27:24;;;;;;;9.50;4.60;;;;;;;;;;10395683;28;20081;-58
2023/07/03 07:32:25;;;;;;;6.22;4.57;;;;;;;;;;10388867;28;20029;-59
2023/07/03 07:37:26;;;;;;;9.48;4.50;;;;;;;;;;10395324;28;20035;-59
2023/07/03 07:42:29;;;;;;;4.90;4.28;;;;;;;;;;10394366;28;20370;-60
2023/07/03 07:47:30;;;;;;;7.60;4.22;;;;;;;;;;10407597;28;20041;-58
2023/07/03 07:52:31;;;;;;;8.48;4.80;;;;;;;;;;10380928;28;20927;-59
2023/07/03 07:57:31;;;;;;;6.00;4.20;;;;;;;;;;10395394;28;20038;-59
2023/07/03 08:02:32;;;;;;;10.50;4.25;;;;;;;;;;10376825;28;20025;-59
2023/07/03 08:07:33;;;;;;;6.82;3.88;;;;;;;;;;10406532;28;20049;-59
2023/07/03 08:12:33;;;;;;;7.97;4.15;;;;;;;;;;10397309;28;20442;-59
2023/07/03 08:17:34;;;;;;;8.50;4.63;;;;;;;;;;10383393;28;20040;-59
2023/07/03 08:22:35;;;;;;;4.57;3.70;;;;;;;;;;10381960;28;20029;-60
2023/07/03 08:27:35;;;;;;;6.47;4.07;;;;;;;;;;10389680;28;20037;-60
2023/07/03 08:32:36;;;;;;;9.82;4.53;;;;;;;;;;10404811;28;20040;-59
2023/07/03 08:37:36;;;;;;;6.50;4.18;;;;;;;;;;10398791;28;20033;-60
2023/07/03 08:42:47;;;;;;;5.70;4.10;;;;;;;;;;10380791;28;20050;-59
2023/07/03 08:47:51;;;;;;;5.55;4.05;;;;;;;;;;10380126;28;20537;-58
2023/07/03 08:52:58;;;;;;;8.20;4.00;;;;;;;;;;10380072;28;20033;-60
2023/07/03 08:57:58;;;;;;;5.75;3.75;;;;;;;;;;10394591;28;20022;-58
2023/07/03 09:03:17;;;;;;;6.65;4.35;;;;;;;;;;10374189;28;20026;-58
2023/07/03 09:08:47;;;;;;;9.95;4.50;;;;;;;;;;10386288;28;20021;-60
2023/07/03 09:13:52;;;;;;;8.02;4.38;;;;;;;;;;10393373;28;20040;-59
2023/07/03 09:19:04;;;;;;;7.65;3.97;;;;;;;;;;10393612;28;20375;-60
2023/07/03 09:24:23;;;;;;;7.65;4.35;;;;;;;;;;10397130;28;20025;-60
2023/07/03 09:29:25;;;;;;;13.07;4.35;;;;;;;;;;10393310;28;20508;-59
2023/07/03 09:34:26;;;;;;;6.55;3.97;;;;;;;;;;10380853;28;20034;-60
2023/07/03 09:39:27;;;;;;;4.68;3.70;;;;;;;;;;10381328;28;20524;-59
2023/07/03 09:44:27;;;;;;;6.20;3.97;;;;;;;;;;10370906;28;20046;-59
2023/07/03 09:49:28;;;;;;;10.93;3.97;;;;;;;;;;10392271;28;20052;-60
2023/07/03 09:54:31;;;;;;;6.20;3.95;;;;;;;;;;10382662;28;20283;-60
2023/07/03 09:59:32;;;;;;;9.23;3.55;;;;;;;;;;10380384;28;20029;-59
2023/07/03 10:04:32;;;;;;;7.95;4.00;;;;;;;;;;10400762;28;20030;-60
2023/07/03 10:09:38;;;;;;;6.32;4.07;;;;;;;;;;10403139;28;20030;-60
2023/07/03 10:14:52;;;;;;;7.60;4.07;;;;;;;;;;10367046;28;20104;-60
2023/07/03 10:19:58;;;;;;;5.28;3.65;;;;;;;;;;10379162;28;20080;-60
2023/07/03 10:25:04;;;;;;;4.78;3.70;;;;;;;;;;10377078;28;20069;-58
2023/07/03 10:30:11;;;;;;;6.32;3.88;;;;;;;;;;10366183;28;20030;-60
2023/07/03 10:35:29;;;;;;;6.85;3.47;;;;;;;;;;10389928;28;20037;-59
2023/07/03 10:40:37;;;;;;;6.30;3.60;;;;;;;;;;10378917;28;20382;-60
2023/07/03 10:45:38;;;;;;;10.05;3.90;;;;;;;;;;10375281;28;20054;-60
2023/07/03 10:51:13;;;;;;;4.82;3.85;;;;;;;;;;10389387;28;20038;-60
2023/07/03 10:56:40;;;;;;;6.07;3.40;;;;;;;;;;10391365;28;20033;-59
2023/07/03 11:01:54;;;;;;;4.73;3.60;;;;;;;;;;10388024;28;20076;-60
2023/07/03 11:07:13;;;;;;;5.45;3.60;;;;;;;;;;10380871;28;20030;-60
2023/07/03 11:13:14;;;;;;;4.80;3.60;;;;;;;;;;10387745;28;20033;-60
2023/07/03 11:18:54;;;;;;;5.60;4.00;;;;;;;;;;10393247;28;20104;-59
2023/07/03 11:24:15;;;;;;;6.25;3.45;;;;;;;;;;10400253;28;20025;-60
2023/07/03 11:29:17;;;;;;;3.35;3.05;;;;;;;;;;10421677;28;20021;-60
2023/07/03 11:34:19;;;;;;;4.80;3.60;;;;;;;;;;10402711;28;20377;-60
2023/07/03 11:39:33;;;;;;;8.32;3.90;;;;;;;;;;10384433;28;20052;-60
2023/07/03 11:44:48;;;;;;;4.50;3.20;;;;;;;;;;10376042;28;20045;-60
2023/07/03 11:49:54;;;;;;;4.78;3.60;;;;;;;;;;10390201;28;20034;-59
2023/07/03 11:55:14;;;;;;;4.03;3.42;;;;;;;;;;10399393;28;20021;-60
2023/07/03 12:00:25;;;;;;;3.65;3.33;;;;;;;;;;10411780;28;20044;-60
2023/07/03 12:05:44;;;;;;;3.92;3.15;;;;;;;;;;10398891;28;20033;-59
2023/07/03 12:10:52;;;;;;;4.13;3.50;;;;;;;;;;10401196;28;20026;-60
2023/07/03 12:15:57;;;;;;;;;;;;;;;;;;10382578;28;20069;-59
2023/07/03 12:21:01;;;;;;;6.10;3.47;;;;;;;;;;10380280;28;20344;-58
2023/07/03 12:26:10;;;;;;;5.00;3.17;;;;;;;;;;10381921;28;20040;-59
2023/07/03 12:31:13;;;;;;;5.47;4.00;;;;;;;;;;10406485;28;20128;-60
2023/07/03 12:36:23;;;;;;;7.60;3.75;;;;;;;;;;10395231;28;20040;-59
2023/07/03 12:41:32;;;;;;;3.70;3.38;;;;;;;;;;10374644;28;20041;-59
2023/07/03 12:46:38;;;;;;;8.20;4.13;;;;;;;;;;10398662;28;20058;-59
2023/07/03 12:51:43;;;;;;;6.47;3.80;;;;;;;;;;10377343;28;20461;-59
2023/07/03 12:56:44;;;;;;;5.95;4.43;;;;;;;;;;10381666;28;20041;-58
2023/07/03 13:01:54;;;;;;;4.43;3.83;;;;;;;;;;10415302;28;20030;-58
2023/07/03 13:06:55;;;;;;;11.02;4.05;;;;;;;;;;10416221;28;20037;-58
2023/07/03 13:11:56;;;;;;;5.32;3.72;;;;;;;;;;10394234;28;20497;-58
2023/07/03 13:17:00;;;;;;;5.25;4.07;;;;;;;;;;10396349;28;20104;-58
2023/07/03 13:22:09;;;;;;;6.93;3.88;;;;;;;;;;10368791;28;20128;-59
2023/07/03 13:27:20;;;;;;;5.65;3.88;;;;;;;;;;10398664;28;20589;-58
2023/07/03 13:32:23;;;;;;;8.50;4.00;;;;;;;;;;10385883;28;20026;-59
2023/07/03 13:37:28;;;;;;;5.65;4.00;;;;;;;;;;10386385;28;20041;-58
2023/07/03 13:42:30;;;;;;;6.05;3.90;;;;;;;;;;10370620;28;20038;-58
2023/07/03 13:47:31;;;;;;;7.70;4.20;;;;;;;;;;10378827;28;20318;-58
2023/07/03 13:52:32;;;;;;;4.20;3.80;;;;;;;;;;10381695;28;20249;-58
2023/07/03 13:57:33;;;;;;;6.95;4.18;;;;;;;;;;10404307;28;20034;-57
2023/07/03 14:02:33;;;;;;;4.90;4.25;;;;;;;;;;10380799;28;20094;-58
2023/07/03 14:07:34;;;;;;;6.00;4.10;;;;;;;;;;10390723;28;20040;-58
2023/07/03 14:12:34;;;;;;;6.38;5.07;;;;;;;;;;10365903;28;20033;-57
2023/07/03 14:17:35;;;;;;;6.22;4.50;;;;;;;;;;10377777;28;20029;-58
2023/07/03 14:22:35;;;;;;;14.15;6.47;;;;;;;;;;10390888;28;20029;-59
2023/07/03 14:27:38;;;;;;;18.08;8.48;;;;;;;;;;10388929;28;20029;-59
2023/07/03 14:32:38;;;;;;;21.50;8.18;;;;;;;;;;10380082;28;20026;-59
2023/07/03 14:37:39;;;;;;;20.17;7.85;;;;;;;;;;10390586;28;20477;-58
2023/07/03 14:42:39;;;;;;;19.30;8.13;;;;;;;;;;10383537;28;20048;-59
2023/07/03 14:47:40;;;;;;;21.45;8.38;;;;;;;;;;10407473;28;20084;-58
2023/07/03 14:52:44;;;;;;;14.88;7.55;;;;;;;;;;10407919;28;20032;-58
2023/07/03 14:57:45;;;;;;;13.20;7.30;;;;;;;;;;10403488;28;20029;-60
2023/07/03 15:02:48;;;;;;;19.63;7.50;;;;;;;;;;10407777;28;20118;-60
2023/07/03 15:07:48;;;;;;;13.00;7.00;;;;;;;;;;10383063;28;21270;-59
2023/07/03 15:12:49;;;;;;;16.45;7.15;;;;;;;;;;10400161;28;20017;-59
2023/07/03 15:17:53;;;;;;;14.68;7.10;;;;;;;;;;10405120;28;20033;-60
2023/07/03 15:22:53;;;;;;;14.30;5.97;;;;;;;;;;10385156;28;20059;-60
2023/07/03 15:27:54;;;;;;;11.65;6.40;;;;;;;;;;10387935;28;20030;-60
2023/07/03 15:32:54;;;;;;;12.63;6.28;;;;;;;;;;10392146;28;20034;-60
2023/07/03 15:37:55;;;;;;;11.15;6.40;;;;;;;;;;10384350;28;20033;-60
2023/07/03 15:42:55;;;;;;;11.90;6.05;;;;;;;;;;10393173;28;20099;-60
2023/07/03 15:47:56;;;;;;;10.88;6.03;;;;;;;;;;10371655;28;20033;-60
2023/07/03 15:52:57;;;;;;;9.02;5.47;;;;;;;;;;10382726;28;20544;-60
2023/07/03 15:57:58;;;;;;;10.45;6.30;;;;;;;;;;10384394;28;20382;-60
2023/07/03 16:02:58;;;;;;;11.15;6.03;;;;;;;;;;10383180;28;20033;-60
2023/07/03 16:07:59;;;;;;;11.73;5.65;;;;;;;;;;10403479;28;20021;-60
2023/07/03 16:12:59;;;;;;;10.10;6.05;;;;;;;;;;10386916;28;20022;-60
2023/07/03 16:18:00;;;;;;;10.73;5.80;;;;;;;;;;10369752;28;20033;-60
2023/07/03 16:23:00;;;;;;;14.10;6.03;;;;;;;;;;10395636;28;20493;-59
2023/07/03 16:28:01;;;;;;;10.48;6.00;;;;;;;;;;10386987;28;20477;-60
2023/07/03 16:33:02;;;;;;;7.35;5.15;;;;;;;;;;10400391;28;20410;-59
2023/07/03 16:38:02;;;;;;;8.90;5.35;;;;;;;;;;10394167;28;20073;-60
2023/07/03 16:43:03;;;;;;;7.88;5.25;;;;;;;;;;10390371;28;20037;-60
2023/07/03 16:48:04;;;;;;;9.85;5.32;;;;;;;;;;10380463;28;20045;-59
2023/07/03 16:53:04;;;;;;;11.82;5.20;;;;;;;;;;10394457;28;20034;-58
2023/07/03 16:58:05;;;;;;;10.60;5.60;;;;;;;;;;10391781;28;20032;-59
2023/07/03 17:03:06;;;;;;;7.10;4.85;;;;;;;;;;10385603;28;20026;-59
2023/07/03 17:08:07;;;;;;;8.63;5.18;;;;;;;;;;10386646;28;20033;-59
2023/07/03 17:13:08;;;;;;;10.07;5.28;;;;;;;;;;10380594;28;20281;-59
2023/07/03 17:18:09;;;;;;;7.95;4.50;;;;;;;;;;10386195;28;20230;-59
2023/07/03 17:23:10;;;;;;;8.93;4.88;;;;;;;;;;10394690;28;20021;-59
2023/07/03 17:28:11;;;;;;;9.02;5.00;;;;;;;;;;10386728;28;20056;-59
2023/07/03 17:33:12;;;;;;;6.63;4.88;;;;;;;;;;10371127;28;20029;-59
2023/07/03 17:38:14;;;;;;;10.85;4.72;;;;;;;;;;10369032;28;20076;-59
2023/07/03 17:43:21;;;;;;;9.75;4.82;;;;;;;;;;10388597;28;20481;-60
2023/07/03 17:48:21;;;;;;;6.15;4.70;;;;;;;;;;10387058;28;20041;-60
2023/07/03 17:53:23;;;;;;;5.05;4.07;;;;;;;;;;10378968;28;20034;-59
2023/07/03 17:58:24;;;;;;;5.88;4.15;;;;;;;;;;10375011;28;20079;-59
2023/07/03 18:03:25;;;;;;;5.75;4.18;;;;;;;;;;10381030;28;20113;-59
2023/07/03 18:08:26;;;;;;;5.63;4.60;;;;;;;;;;10386366;28;20392;-59
2023/07/03 18:13:27;;;;;;;4.78;4.20;;;;;;;;;;10396689;28;20441;-60
2023/07/03 18:18:28;;;;;;;5.40;4.05;;;;;;;;;;10398156;28;20209;-59
2023/07/03 18:23:29;;;;;;;7.13;4.15;;;;;;;;;;10398568;28;20567;-61
2023/07/03 18:28:29;;;;;;;5.97;3.88;;;;;;;;;;10384537;28;20029;-61
2023/07/03 18:33:30;;;;;;;5.22;3.90;;;;;;;;;;10384900;28;20053;-61
2023/07/03 18:38:30;;;;;;;4.15;3.75;;;;;;;;;;10390241;28;20462;-60
2023/07/03 18:43:31;;;;;;;4.97;3.63;;;;;;;;;;10387224;28;20501;-60
2023/07/03 18:48:32;;;;;;;3.90;3.50;;;;;;;;;;10396585;28;20104;-60
2023/07/03 18:53:33;;;;;;;5.25;3.65;;;;;;;;;;10389125;28;20030;-60
2023/07/03 18:58:33;;;;;;;5.22;3.80;;;;;;;;;;10386873;28;20034;-60
2023/07/03 19:03:34;;;;;;;4.10;3.40;;;;;;;;;;10390274;28;20026;-61
2023/07/03 19:08:36;;;;;;;4.50;3.78;;;;;;;;;;10401819;28;20051;-61
2023/07/03 19:13:37;;;;;;;4.63;3.80;;;;;;;;;;10394888;28;20378;-60
2023/07/03 19:18:38;;;;;;;6.03;3.78;;;;;;;;;;10390792;28;20112;-61
2023/07/03 19:23:39;;;;;;;4.13;3.67;;;;;;;;;;10397954;28;20025;-62
2023/07/03 19:28:39;;;;;;;5.45;3.83;;;;;;;;;;10395225;28;20503;-62
2023/07/03 19:33:40;;;;;;;6.53;3.45;;;;;;;;;;10383108;28;20454;-61
2023/07/03 19:38:41;;;;;;;8.00;4.03;;;;;;;;;;10404674;28;20083;-62
2023/07/03 19:43:43;;;;;;;5.78;4.30;;;;;;;;;;10398592;28;20053;-60
2023/07/03 19:48:43;;;;;;;6.47;4.03;;;;;;;;;;10390751;28;20033;-61
2023/07/03 19:53:44;;;;;;;6.60;3.60;;;;;;;;;;10382353;28;20037;-61
2023/07/03 19:58:47;;;;;;;4.75;4.00;;;;;;;;;;10393828;28;20092;-60
2023/07/03 20:03:48;;;;;;;4.32;3.70;;;;;;;;;;10404980;28;20088;-60
2023/07/03 20:08:53;;;;;;;6.30;4.40;;;;;;;;;;10374193;28;20021;-60
2023/07/03 20:13:54;;;;;;;6.07;4.10;;;;;;;;;;10392940;28;20063;-61
2023/07/03 20:18:54;;;;;;;4.10;3.72;;;;;;;;;;10407678;28;20056;-60
2023/07/03 20:23:56;;;;;;;6.15;4.07;;;;;;;;;;10417427;28;20021;-60
2023/07/03 20:28:57;;;;;;;6.05;4.35;;;;;;;;;;10411146;28;20029;-59
2023/07/03 20:33:58;;;;;;;5.80;4.07;;;;;;;;;;10410884;28;20067;-60
2023/07/03 20:38:58;;;;;;;4.68;3.70;;;;;;;;;;10400738;28;20022;-60
2023/07/03 20:43:59;;;;;;;5.85;3.95;;;;;;;;;;10385813;28;20049;-60
2023/07/03 20:49:00;;;;;;;5.85;4.07;;;;;;;;;;10411937;28;20032;-60
2023/07/03 20:54:03;;;;;;;5.50;3.80;;;;;;;;;;10399853;28;20021;-60
2023/07/03 20:59:05;;;;;;;4.70;3.97;;;;;;;;;;10405146;28;20533;-60
2023/07/03 21:04:07;;;;;;;6.25;3.88;;;;;;;;;;10413188;28;20275;-60
2023/07/03 21:09:08;;;;;;;5.50;3.83;;;;;;;;;;10382295;28;20493;-60
2023/07/03 21:14:10;;;;;;;5.03;3.95;;;;;;;;;;10381771;28;20026;-59
2023/07/03 21:19:12;;;;;;;10.13;4.00;;;;;;;;;;10378558;28;20037;-60
2023/07/03 21:24:13;;;;;;;5.63;3.72;;;;;;;;;;10371233;28;20026;-60
2023/07/03 21:29:13;;;;;;;5.30;3.88;;;;;;;;;;10389562;28;20488;-61
2023/07/03 21:34:14;;;;;;;4.53;4.03;;;;;;;;;;10385735;28;20405;-61
2023/07/03 21:39:14;;;;;;;3.92;3.53;;;;;;;;;;10378617;28;20424;-60
2023/07/03 21:44:17;;;;;;;6.05;3.83;;;;;;;;;;10396057;28;20079;-59
2023/07/03 21:49:17;;;;;;;4.25;3.00;;;;;;;;;;10390944;28;20033;-60
2023/07/03 21:54:18;;;;;;;4.00;2.70;;;;;;;;;;10393919;28;20485;-60
2023/07/03 21:59:20;;;;;;;9.68;2.95;;;;;;;;;;10391258;28;20117;-60
2023/07/03 22:04:40;;;;;;;5.78;3.05;;;;;;;;;;10392254;28;20459;-60
2023/07/03 22:09:42;;;;;;;4.20;2.47;;;;;;;;;;10373814;28;20053;-60
2023/07/03 22:14:55;;;;;;;8.85;2.83;;;;;;;;;;10379909;28;20057;-61
2023/07/03 22:19:57;;;;;;;4.50;2.53;;;;;;;;;;10386307;28;20044;-61
2023/07/03 22:24:58;;;;;;;4.13;2.50;;;;;;;;;;10380810;28;20046;-60
2023/07/03 22:29:59;;;;;;;5.18;2.72;;;;;;;;;;10377916;28;20026;-60
2023/07/03 22:35:00;;;;;;;3.25;2.35;;;;;;;;;;10388961;28;20069;-59
2023/07/03 22:40:00;;;;;;;5.63;2.20;;;;;;;;;;10366920;28;20022;-59
2023/07/03 22:45:01;;;;;;;3.95;2.25;;;;;;;;;;10378100;28;20042;-59
2023/07/03 22:50:02;;;;;;;4.18;2.20;;;;;;;;;;10389689;28;20038;-60
2023/07/03 22:55:06;;;;;;;2.50;2.20;;;;;;;;;;10377527;28;20048;-59
2023/07/03 23:00:10;;;;;;;4.13;2.08;;;;;;;;;;10382580;28;20157;-60
2023/07/03 23:05:11;;;;;;;6.72;2.00;;;;;;;;;;10385516;28;20421;-59
2023/07/03 23:10:12;;;;;;;6.43;1.98;;;;;;;;;;10398403;28;20119;-60
2023/07/03 23:15:12;;;;;;;2.97;1.75;;;;;;;;;;10384877;28;20041;-60
2023/07/03 23:20:14;;;;;;;1.80;1.42;;;;;;;;;;10384834;28;20074;-60
2023/07/03 23:25:15;;;;;;;2.85;1.85;;;;;;;;;;10398389;28;20033;-60
2023/07/03 23:30:15;;;;;;;3.83;1.95;;;;;;;;;;10403409;28;20057;-59
2023/07/03 23:35:16;;;;;;;1.52;1.42;;;;;;;;;;10382140;28;20036;-59
2023/07/03 23:40:18;;;;;;;3.60;1.83;;;;;;;;;;10373199;28;20513;-59
2023/07/03 23:45:19;;;;;;;2.67;1.73;;;;;;;;;;10394658;28;20165;-60
2023/07/03 23:50:20;;;;;;;6.13;1.67;;;;;;;;;;10383379;28;20122;-60
2023/07/03 23:55:21;;;;;;;3.13;1.60;;;;;;;;;;10371510;28;20482;-60
